Alden, Minnesota
Current Conditions -  °F | °C
As of 10:01 PM on Wednesday 26 Nov 2014 (Local Time) from KAEL Reporting Station
Overcast Overcast  
Wind Chill:   Ceiling: 2800
Heat Index: 16°   Visibility: 5mi
Dew Point: 12°   Wind: 6mph
Humidity: 86%   Direction: 300°WNW
Pressure: 30.32"   Gusts: NA
Location:  43.67°N, 93.58°W
Report Text: KAEL 270401Z AUTO 30005KT 5SM SCT022 OVC028 M09/M11 A3032 RMK AO2
Loading
Personal Weather Stations






























Interactive Weather Map New forecast layout! Learn more

10-Day Weather Forecast

Advertisements
Track Severe Weather on mobile